Time;durP1;ratioP1;P1;durP2;ratioP2;P2;SDS_P1;SDS_P2;PMS_P1;PMS_P2;Temp;Humidity;BMP_temperature;BMP_pressure;BME280_temperature;BME280_humidity;BME280_pressure;Samples;Min_cycle;Max_cycle;Signal;HPM_P1;HPM_P2
2022/06/20 00:01:06;;;;;;;3.22;1.98;;;;;;;15.22;75.19;94725.66;5094730;28;20268;-76
2022/06/20 00:03:38;;;;;;;2.92;1.90;;;;;;;15.06;75.37;94727.63;5094442;28;20221;-76
2022/06/20 00:06:06;;;;;;;2.67;2.15;;;;;;;15.01;75.55;94734.16;5093781;28;20237;-76
2022/06/20 00:08:34;;;;;;;2.80;2.13;;;;;;;14.79;75.61;94732.00;5093499;28;20627;-77
2022/06/20 00:11:01;;;;;;;4.20;2.20;;;;;;;14.76;75.96;94730.78;5094500;28;20623;-77
2022/06/20 00:13:31;;;;;;;2.70;1.73;;;;;;;14.53;76.99;94735.25;5094507;28;20267;-76
2022/06/20 00:16:00;;;;;;;4.32;2.38;;;;;;;14.37;77.11;94737.13;5094302;28;20229;-76
2022/06/20 00:18:27;;;;;;;2.30;1.90;;;;;;;14.40;77.58;94725.56;5094123;28;20207;-78
2022/06/20 00:20:54;;;;;;;3.00;2.38;;;;;;;14.58;77.15;94732.28;5093631;28;20765;-76
2022/06/20 00:23:21;;;;;;;3.33;2.35;;;;;;;14.65;76.99;94732.44;5093886;28;20306;-77
2022/06/20 00:25:49;;;;;;;2.95;2.08;;;;;;;14.76;76.91;94738.19;5093720;28;20226;-77
2022/06/20 00:28:17;;;;;;;2.72;1.70;;;;;;;14.80;77.05;94734.41;5093990;28;20206;-78
2022/06/20 00:30:44;;;;;;;3.08;2.33;;;;;;;14.79;76.42;94727.34;5093926;28;20299;-76
2022/06/20 00:33:11;;;;;;;3.25;2.28;;;;;;;14.67;77.13;94724.72;5093916;28;20396;-75
2022/06/20 00:35:39;;;;;;;3.00;2.17;;;;;;;14.67;77.50;94730.16;5093024;28;20610;-77
2022/06/20 00:38:10;;;;;;;5.78;2.47;;;;;;;14.65;77.42;94732.44;5093499;28;20628;-77
2022/06/20 00:40:40;;;;;;;3.72;2.40;;;;;;;14.62;77.33;94738.63;5093598;28;20206;-77
2022/06/20 00:43:12;;;;;;;7.30;2.42;;;;;;;14.66;77.39;94734.03;5093890;28;20617;-76
2022/06/20 00:45:43;;;;;;;6.22;2.42;;;;;;;14.67;77.16;94732.09;5093309;28;20267;-76
2022/06/20 00:48:14;;;;;;;4.28;2.20;;;;;;;14.58;77.33;94726.81;5092350;28;20285;-76
2022/06/20 00:50:40;;;;;;;4.43;2.83;;;;;;;14.53;76.95;94724.34;5093163;28;20645;-76
2022/06/20 00:53:14;;;;;;;3.05;2.13;;;;;;;14.51;77.33;94718.44;5093241;28;20222;-75
2022/06/20 00:55:46;;;;;;;2.42;2.10;;;;;;;14.58;77.51;94721.38;5093265;28;20191;-77
2022/06/20 00:58:29;;;;;;;2.67;1.85;;;;;;;14.53;77.34;94718.91;5093138;28;20728;-76
2022/06/20 01:00:58;;;;;;;6.35;2.42;;;;;;;14.53;77.32;94730.59;5093194;28;20222;-76
2022/06/20 01:03:29;;;;;;;3.40;2.42;;;;;;;14.58;77.10;94722.16;5092970;28;20239;-76
2022/06/20 01:06:01;;;;;;;4.13;2.08;;;;;;;14.41;78.46;94727.16;5093125;28;20238;-76
2022/06/20 01:08:31;;;;;;;4.63;2.13;;;;;;;14.33;78.79;94719.91;5093339;28;20190;-76
2022/06/20 01:11:01;;;;;;;3.70;2.33;;;;;;;14.42;78.83;94720.56;5092911;28;20230;-77
2022/06/20 01:13:30;;;;;;;7.75;2.63;;;;;;;14.42;79.08;94723.28;5093173;28;20214;-76
2022/06/20 01:16:06;;;;;;;9.35;2.47;;;;;;;14.52;78.83;94714.59;5092843;28;20210;-76
2022/06/20 01:18:36;;;;;;;4.00;2.60;;;;;;;14.56;78.46;94708.09;5092657;28;20222;-76
2022/06/20 01:21:10;;;;;;;3.85;2.25;;;;;;;14.61;78.00;94709.78;5092930;28;20201;-76
2022/06/20 01:23:47;;;;;;;5.53;2.08;;;;;;;14.65;78.22;94709.84;5092760;28;20241;-77
2022/06/20 01:26:24;;;;;;;4.25;2.30;;;;;;;14.69;77.47;94706.06;5092880;28;20230;-76
2022/06/20 01:28:56;;;;;;;4.40;2.33;;;;;;;14.67;77.98;94696.66;5092860;28;20305;-76
2022/06/20 01:31:26;;;;;;;3.60;2.13;;;;;;;14.60;78.04;94704.66;5092976;28;20301;-76
2022/06/20 01:33:54;;;;;;;2.70;1.95;;;;;;;14.22;78.97;94701.31;5092737;28;20562;-76
2022/06/20 01:39:08;;;;;;;3.20;2.47;;;;;;;14.22;78.39;94712.22;5092477;28;20303;-76
2022/06/20 01:44:22;;;;;;;3.28;1.88;;;;;;;14.05;77.74;94709.81;5092357;28;20208;-76
2022/06/20 01:46:49;;;;;;;2.78;1.83;;;;;;;13.87;79.28;94717.47;5092309;28;20230;-78
2022/06/20 01:49:21;;;;;;;3.33;2.03;;;;;;;13.71;80.33;94710.38;5092162;28;20697;-78
2022/06/20 01:51:52;;;;;;;4.45;2.50;;;;;;;13.50;80.68;94705.13;5092379;28;20227;-75
2022/06/20 01:54:21;;;;;;;3.45;2.30;;;;;;;13.41;81.22;94718.03;5092250;28;20195;-76
2022/06/20 01:56:50;;;;;;;3.75;2.55;;;;;;;13.39;81.02;94710.22;5092109;28;20229;-77
2022/06/20 01:59:25;;;;;;;6.18;2.70;;;;;;;13.61;81.13;94713.59;5092193;28;20284;-78
2022/06/20 02:01:53;;;;;;;2.88;2.20;;;;;;;13.66;81.80;94710.66;5092108;28;20185;-77
2022/06/20 02:04:25;;;;;;;3.08;2.10;;;;;;;13.66;82.38;94710.66;5091826;28;20218;-76
2022/06/20 02:06:53;;;;;;;3.67;2.58;;;;;;;13.69;82.00;94710.72;5092326;28;20268;-77
2022/06/20 02:09:20;;;;;;;3.95;2.50;;;;;;;13.72;81.55;94709.25;5091721;28;20272;-77
2022/06/20 02:11:48;;;;;;;7.55;2.30;;;;;;;13.81;80.95;94709.88;5091745;28;20209;-77
2022/06/20 02:14:19;;;;;;;3.60;2.30;;;;;;;13.79;80.24;94706.75;5091814;28;20615;-77
2022/06/20 02:16:52;;;;;;;2.92;2.00;;;;;;;13.92;80.15;94711.00;5091835;28;20263;-76
2022/06/20 02:19:25;;;;;;;2.90;2.13;;;;;;;13.96;79.64;94717.31;5091697;28;20222;-75
2022/06/20 02:21:56;;;;;;;3.05;2.08;;;;;;;13.98;78.72;94704.16;5091835;28;20222;-76
2022/06/20 02:24:25;;;;;;;4.78;1.98;;;;;;;13.93;78.53;94701.69;5091481;28;20325;-76
2022/06/20 02:26:56;;;;;;;5.45;2.15;;;;;;;13.97;78.51;94704.50;5091680;28;20329;-76
2022/06/20 02:29:27;;;;;;;3.17;2.00;;;;;;;13.96;78.53;94705.63;5091695;28;20255;-76
2022/06/20 02:31:58;;;;;;;3.20;2.38;;;;;;;13.81;79.25;94709.88;5091563;28;20199;-76
2022/06/20 02:34:28;;;;;;;4.80;2.80;;;;;;;13.83;79.43;94710.34;5091289;28;20226;-76
2022/06/20 02:36:56;;;;;;;2.58;2.00;;;;;;;13.90;78.80;94702.38;5091284;28;20218;-77
2022/06/20 02:39:24;;;;;;;4.10;2.22;;;;;;;13.92;79.03;94705.56;5091488;28;20202;-77
2022/06/20 02:41:56;;;;;;;3.97;2.60;;;;;;;13.91;78.80;94698.53;5091688;28;20222;-77
2022/06/20 02:44:24;;;;;;;2.63;2.25;;;;;;;13.95;78.67;94702.13;5090785;28;20187;-77
2022/06/20 02:46:53;;;;;;;6.47;2.10;;;;;;;13.93;78.89;94701.69;5090890;28;20258;-77
2022/06/20 02:49:25;;;;;;;5.43;1.95;;;;;;;13.86;79.53;94701.47;5090981;28;20198;-77
2022/06/20 02:51:54;;;;;;;3.08;2.22;;;;;;;13.85;80.06;94700.69;5091457;28;20217;-78
2022/06/20 02:54:25;;;;;;;3.80;2.33;;;;;;;13.85;80.15;94697.97;5091398;28;20222;-76
2022/06/20 02:56:58;;;;;;;4.25;2.33;;;;;;;13.95;79.79;94693.16;5091408;28;20275;-76
2022/06/20 02:59:29;;;;;;;4.05;2.08;;;;;;;13.95;80.03;94693.94;5091267;28;20186;-76
2022/06/20 03:02:01;;;;;;;3.03;2.15;;;;;;;14.09;79.80;94688.91;5091228;28;20326;-76
2022/06/20 03:04:34;;;;;;;2.40;2.05;;;;;;;14.27;78.59;94694.03;5091288;28;20588;-78
2022/06/20 03:07:04;;;;;;;3.40;2.15;;;;;;;14.85;77.77;94693.22;5090947;28;20233;-76
2022/06/20 03:09:33;;;;;;;3.40;2.63;;;;;;;15.75;74.94;94690.59;5091304;28;20202;-76
2022/06/20 03:12:02;;;;;;;2.58;2.20;;;;;;;16.80;71.14;94691.06;5094264;28;20306;-76
2022/06/20 03:14:37;;;;;;;4.05;2.78;;;;;;;17.65;67.52;94678.69;5094752;28;20275;-76
2022/06/20 03:17:06;;;;;;;3.47;2.20;;;;;;;18.48;64.21;94675.75;5094999;28;20217;-77
2022/06/20 03:19:38;;;;;;;2.38;2.10;;;;;;;19.31;60.98;94669.81;5095339;28;20218;-77
2022/06/20 03:22:09;;;;;;;3.10;2.45;;;;;;;20.01;59.58;94668.66;5095280;28;20230;-77
2022/06/20 03:24:37;;;;;;;4.25;2.22;;;;;;;20.97;56.56;94655.94;5094993;28;20302;-77
2022/06/20 03:27:07;;;;;;;4.28;2.38;;;;;;;20.73;56.36;94664.97;5094895;28;20761;-77
2022/06/20 03:29:37;;;;;;;4.55;2.80;;;;;;;20.92;55.30;94668.13;5095465;28;20301;-77
2022/06/20 03:32:05;;;;;;;2.72;2.22;;;;;;;21.90;54.00;94665.69;5094960;28;20273;-77
2022/06/20 03:34:32;;;;;;;4.80;3.13;;;;;;;22.83;50.83;94665.28;5094760;28;20214;-76
2022/06/20 03:37:02;;;;;;;2.20;2.00;;;;;;;23.52;49.12;94653.28;5095042;28;20202;-77
2022/06/20 03:39:30;;;;;;;3.47;2.25;;;;;;;23.00;50.44;94658.84;5095120;28;20194;-77
2022/06/20 03:41:57;;;;;;;5.63;3.03;;;;;;;23.60;48.18;94652.03;5094429;28;20590;-76
2022/06/20 03:44:29;;;;;;;3.35;2.70;;;;;;;24.02;47.27;94657.13;5094696;28;20202;-76
2022/06/20 03:47:05;;;;;;;3.65;2.80;;;;;;;24.53;45.48;94660.06;5094205;28;20226;-78
2022/06/20 03:49:36;;;;;;;4.53;3.17;;;;;;;24.76;45.51;94666.47;5094508;28;20701;-78
2022/06/20 03:52:13;;;;;;;3.20;2.90;;;;;;;24.78;44.91;94663.28;5094728;28;20312;-78
2022/06/20 03:54:45;;;;;;;2.88;2.58;;;;;;;25.98;42.32;94654.97;5094765;28;20791;-78
2022/06/20 03:57:22;;;;;;;3.70;2.88;;;;;;;26.46;41.11;94656.44;5094623;28;20186;-78
2022/06/20 03:59:53;;;;;;;3.42;2.90;;;;;;;25.77;42.37;94669.25;5094655;28;20226;-78
2022/06/20 04:02:26;;;;;;;3.50;2.83;;;;;;;25.50;42.33;94664.56;5094602;28;20233;-77
2022/06/20 04:04:58;;;;;;;6.40;2.85;;;;;;;27.27;39.53;94662.19;5094590;28;20199;-78
2022/06/20 04:07:31;;;;;;;4.28;2.70;;;;;;;27.14;39.09;94664.09;5094246;28;20218;-78
2022/06/20 04:12:55;;;;;;;4.15;2.60;;;;;;;27.49;37.86;94654.84;5094031;28;20775;-79
2022/06/20 04:15:26;;;;;;;4.75;2.90;;;;;;;28.36;36.17;94654.19;5094056;28;20300;-78
2022/06/20 04:20:52;;;;;;;3.55;2.95;;;;;;;28.35;37.07;94647.06;5094288;28;20442;-78
2022/06/20 04:23:27;;;;;;;7.00;3.15;;;;;;;28.27;36.16;94641.69;5093016;28;20194;-79
2022/06/20 04:26:01;;;;;;;8.02;3.22;;;;;;;28.50;36.39;94642.63;5094241;28;20227;-78
2022/06/20 04:28:34;;;;;;;6.20;3.10;;;;;;;28.49;36.11;94641.06;5094399;28;20575;-78
2022/06/20 04:31:08;;;;;;;3.13;2.83;;;;;;;29.73;34.20;94639.19;5094000;28;20594;-78
2022/06/20 04:33:40;;;;;;;3.38;3.05;;;;;;;29.05;35.20;94638.59;5093773;28;20236;-79
2022/06/20 04:36:16;;;;;;;4.30;3.28;;;;;;;30.14;33.33;94638.94;5094021;28;20186;-77
2022/06/20 04:38:52;;;;;;;3.97;2.83;;;;;;;29.39;35.19;94637.13;5093699;28;20653;-80
2022/06/20 04:41:26;;;;;;;4.53;3.20;;;;;;;30.25;33.28;94639.34;5093717;28;20186;-78
2022/06/20 04:43:58;;;;;;;5.57;3.50;;;;;;;29.61;34.43;94635.97;5092956;28;20676;-79
2022/06/20 04:46:32;;;;;;;6.88;3.47;;;;;;;29.49;34.39;94636.78;5092659;28;20218;-79
2022/06/20 04:49:00;;;;;;;4.75;3.83;;;;;;;30.17;33.36;94640.84;5093419;28;20191;-79
2022/06/20 04:51:33;;;;;;;5.78;3.35;;;;;;;30.23;33.49;94635.44;5093202;28;20764;-79
2022/06/20 04:54:04;;;;;;;4.80;3.15;;;;;;;30.70;32.69;94629.72;5093600;28;20264;-79
2022/06/20 04:56:32;;;;;;;6.22;3.55;;;;;;;31.57;32.08;94623.84;5092615;28;20194;-78
2022/06/20 04:59:02;;;;;;;4.30;3.80;;;;;;;30.66;32.81;94629.84;5092935;28;20219;-79
2022/06/20 05:01:32;;;;;;;3.92;3.53;;;;;;;30.07;34.25;94625.22;5092604;28;20312;-79
2022/06/20 05:04:07;;;;;;;3.92;3.60;;;;;;;30.59;33.20;94626.56;5093214;28;20849;-79
2022/06/20 05:06:37;;;;;;;5.57;3.60;;;;;;;29.92;33.82;94615.78;5092836;28;20217;-80
2022/06/20 05:09:13;;;;;;;6.90;3.55;;;;;;;30.97;32.69;94621.47;5093115;28;20675;-79
2022/06/20 05:11:43;;;;;;;6.50;3.90;;;;;;;31.53;32.25;94630.84;5092972;28;20636;-79
2022/06/20 05:14:14;;;;;;;4.90;3.80;;;;;;;31.05;31.79;94633.16;5092764;28;20219;-80
2022/06/20 05:16:47;;;;;;;5.70;3.25;;;;;;;32.35;29.58;94626.13;5092699;28;20240;-79
2022/06/20 05:19:20;;;;;;;6.43;3.75;;;;;;;31.84;30.54;94625.19;5092633;28;20700;-80
2022/06/20 05:21:51;;;;;;;4.90;3.30;;;;;;;30.19;32.40;94621.63;5093094;28;20341;-78
2022/06/20 05:24:23;;;;;;;7.28;3.00;;;;;;;30.74;33.01;94625.56;5092784;28;20230;-79
2022/06/20 05:26:53;;;;;;;3.90;3.30;;;;;;;30.18;32.95;94627.66;5092555;28;20234;-80
2022/06/20 05:29:29;;;;;;;3.22;2.88;;;;;;;31.07;32.03;94628.66;5093054;28;20240;-80
2022/06/20 05:31:59;;;;;;;5.07;3.60;;;;;;;30.73;31.74;94631.63;5092558;28;20218;-79
2022/06/20 05:34:31;;;;;;;4.68;3.47;;;;;;;31.09;32.08;94629.00;5093069;28;20206;-80
2022/06/20 05:37:04;;;;;;;5.10;3.55;;;;;;;30.32;32.92;94622.31;5092700;28;20186;-79
2022/06/20 05:39:39;;;;;;;6.20;3.40;;;;;;;31.19;31.06;94626.22;5092726;28;20702;-79
2022/06/20 05:42:11;;;;;;;5.65;3.47;;;;;;;30.57;31.97;94631.81;5092867;28;20645;-80
2022/06/20 05:44:38;;;;;;;3.92;3.20;;;;;;;29.38;33.13;94621.59;5092746;28;20194;-80
2022/06/20 05:47:08;;;;;;;5.32;3.38;;;;;;;31.24;31.51;94623.63;5092087;28;20230;-79
2022/06/20 05:49:44;;;;;;;4.03;3.22;;;;;;;31.04;32.08;94623.19;5092117;28;20233;-80
2022/06/20 05:52:17;;;;;;;5.68;3.28;;;;;;;32.04;30.99;94623.47;5092334;28;20218;-80
2022/06/20 05:54:49;;;;;;;6.30;3.10;;;;;;;31.55;31.37;94628.38;5092492;28;20198;-80
2022/06/20 05:57:20;;;;;;;5.80;3.13;;;;;;;31.88;30.47;94625.78;5092246;28;20290;-79
2022/06/20 05:59:50;;;;;;;3.70;2.67;;;;;;;31.44;30.69;94626.00;5092388;28;20218;-80
2022/06/20 06:02:24;;;;;;;3.30;3.00;;;;;;;33.07;28.90;94616.00;5092082;28;20226;-80
2022/06/20 06:04:59;;;;;;;4.03;2.95;;;;;;;32.27;29.90;94619.25;5092393;28;20239;-79
2022/06/20 06:07:33;;;;;;;6.78;3.05;;;;;;;31.16;30.73;94615.97;5092005;28;20279;-80
2022/06/20 06:10:09;;;;;;;4.82;2.95;;;;;;;31.81;31.53;94626.09;5092361;28;20194;-79
2022/06/20 06:12:40;;;;;;;6.72;3.20;;;;;;;32.33;29.41;94623.00;5091667;28;20217;-79
2022/06/20 06:15:17;;;;;;;4.13;2.92;;;;;;;32.54;29.15;94623.28;5092210;28;20305;-79
2022/06/20 06:17:50;;;;;;;3.22;2.78;;;;;;;31.23;30.12;94610.84;5091519;28;20214;-80
2022/06/20 06:20:20;;;;;;;3.42;3.00;;;;;;;31.05;31.33;94614.34;5091929;28;20190;-79
2022/06/20 06:22:51;;;;;;;3.22;2.75;;;;;;;31.48;31.10;94612.63;5091558;28;20305;-77
2022/06/20 06:25:24;;;;;;;7.05;3.00;;;;;;;31.54;29.70;94624.78;5091523;28;20279;-80
2022/06/20 06:27:54;;;;;;;4.80;3.38;;;;;;;29.99;32.81;94621.91;5091717;28;20218;-80
2022/06/20 06:30:25;;;;;;;6.63;2.70;;;;;;;30.72;32.67;94616.06;5091890;28;20256;-80
2022/06/20 06:32:57;;;;;;;3.58;2.78;;;;;;;31.30;30.70;94606.97;5091753;28;20212;-79
2022/06/20 06:35:27;;;;;;;5.47;3.08;;;;;;;32.15;29.47;94606.16;5091694;28;20641;-80
2022/06/20 06:38:01;;;;;;;5.18;3.13;;;;;;;30.74;31.28;94602.41;5091773;28;20182;-80
2022/06/20 06:40:35;;;;;;;4.47;2.97;;;;;;;31.58;29.48;94602.22;5092027;28;20269;-80
2022/06/20 06:43:13;;;;;;;3.42;3.13;;;;;;;31.93;29.70;94600.72;5091454;28;20275;-80
2022/06/20 06:45:40;;;;;;;3.45;2.70;;;;;;;31.44;29.87;94587.56;5091003;28;20214;-80
2022/06/20 06:48:13;;;;;;;3.38;2.95;;;;;;;32.71;28.96;94582.41;5090738;28;20234;-79
2022/06/20 06:50:44;;;;;;;4.25;3.10;;;;;;;32.53;28.79;94588.84;5091228;28;20279;-80
2022/06/20 06:53:18;;;;;;;4.60;3.28;;;;;;;31.25;30.08;94591.59;5091177;28;20187;-78
2022/06/20 06:55:50;;;;;;;5.85;3.03;;;;;;;32.29;29.28;94579.53;5091505;28;20298;-79
2022/06/20 06:58:24;;;;;;;4.53;3.10;;;;;;;31.79;29.92;94571.31;5091306;28;20237;-78
2022/06/20 07:00:56;;;;;;;5.07;3.28;;;;;;;31.95;29.59;94563.84;5091348;28;20336;-79
2022/06/20 07:03:27;;;;;;;4.32;2.70;;;;;;;33.32;28.57;94555.06;5091477;28;20251;-79
2022/06/20 07:05:59;;;;;;;5.38;2.75;;;;;;;34.09;28.22;94549.50;5091653;28;20575;-79
2022/06/20 07:08:31;;;;;;;3.85;2.78;;;;;;;33.84;27.62;94545.97;5090856;28;20295;-79
2022/06/20 07:11:08;;;;;;;4.15;2.85;;;;;;;33.43;28.32;94547.66;5090874;28;20218;-78
2022/06/20 07:13:40;;;;;;;7.00;2.90;;;;;;;32.55;28.76;94544.25;5090801;28;20569;-78
2022/06/20 07:16:18;;;;;;;4.38;2.85;;;;;;;31.26;30.51;94548.34;5091421;28;20296;-78
2022/06/20 07:18:48;;;;;;;4.25;2.83;;;;;;;30.29;31.29;94549.78;5090880;28;20194;-78
2022/06/20 07:21:18;;;;;;;4.32;2.47;;;;;;;29.57;32.13;94551.53;5091206;28;20283;-79
2022/06/20 07:23:48;;;;;;;4.15;2.95;;;;;;;30.27;31.75;94553.03;5090402;28;20307;-79
2022/06/20 07:26:21;;;;;;;5.00;3.00;;;;;;;30.43;31.26;94542.84;5091371;28;20214;-79
2022/06/20 07:28:53;;;;;;;8.45;2.60;;;;;;;31.28;30.82;94536.69;5091232;28;20230;-80
2022/06/20 07:31:26;;;;;;;7.10;2.75;;;;;;;32.31;29.60;94541.38;5091193;28;20630;-80
2022/06/20 07:33:56;;;;;;;4.35;2.70;;;;;;;30.51;31.34;94544.13;5091139;28;20643;-76
2022/06/20 07:36:28;;;;;;;6.47;2.90;;;;;;;30.01;33.21;94546.03;5090953;28;20210;-80
2022/06/20 07:38:59;;;;;;;4.30;2.60;;;;;;;29.97;33.28;94542.56;5090831;28;20590;-79
2022/06/20 07:41:35;;;;;;;6.88;2.90;;;;;;;31.32;31.66;94540.88;5091040;28;20226;-80
2022/06/20 07:44:07;;;;;;;3.97;2.60;;;;;;;30.83;32.20;94549.28;5091184;28;20206;-80
2022/06/20 07:46:40;;;;;;;3.28;2.70;;;;;;;31.55;30.95;94547.91;5091259;28;20313;-80
2022/06/20 07:49:16;;;;;;;3.58;2.45;;;;;;;31.07;32.41;94547.47;5090473;28;20341;-80
2022/06/20 07:51:47;;;;;;;4.65;2.75;;;;;;;27.97;35.49;94553.00;5090915;28;20685;-79
2022/06/20 07:54:18;;;;;;;5.07;3.42;;;;;;;28.47;34.59;94555.09;5090962;28;20377;-79
2022/06/20 07:56:50;;;;;;;5.15;3.35;;;;;;;28.71;34.06;94552.75;5091611;28;20222;-80
2022/06/20 07:59:20;;;;;;;4.22;3.05;;;;;;;29.62;33.45;94539.81;5094781;28;20307;-79
2022/06/20 08:01:52;;;;;;;7.35;3.78;;;;;;;29.46;34.30;94533.59;5094630;28;20202;-77
2022/06/20 08:04:27;;;;;;;3.45;3.13;;;;;;;29.46;34.88;94545.56;5094482;28;20233;-75
2022/06/20 08:06:57;;;;;;;7.22;3.72;;;;;;;28.69;35.02;94535.72;5094274;28;20645;-79
2022/06/20 08:09:29;;;;;;;6.28;3.53;;;;;;;27.55;36.51;94541.00;5094243;28;20331;-80
2022/06/20 08:12:03;;;;;;;8.20;4.03;;;;;;;27.53;36.83;94549.00;5094126;28;20222;-79
2022/06/20 08:14:38;;;;;;;8.15;3.40;;;;;;;27.65;36.59;94534.38;5094400;28;20295;-75
2022/06/20 08:17:08;;;;;;;8.63;3.75;;;;;;;27.86;36.26;94527.44;5094372;28;20251;-79
2022/06/20 08:19:37;;;;;;;9.18;3.20;;;;;;;27.96;34.95;94531.94;5094468;28;20253;-76
2022/06/20 08:22:15;;;;;;;4.35;2.90;;;;;;;28.11;35.99;94533.06;5094058;28;20222;-78
2022/06/20 08:24:47;;;;;;;3.88;3.20;;;;;;;27.87;34.80;94529.81;5093150;28;20303;-80
2022/06/20 08:27:23;;;;;;;4.43;2.90;;;;;;;27.89;35.11;94537.69;5093577;28;20276;-79
2022/06/20 08:29:56;;;;;;;5.43;3.30;;;;;;;28.55;34.72;94527.81;5093992;28;20594;-79
2022/06/20 08:32:32;;;;;;;5.13;3.00;;;;;;;28.46;35.39;94530.47;5094077;28;20248;-79
2022/06/20 08:35:10;;;;;;;4.57;2.67;;;;;;;28.58;33.23;94526.88;5093872;28;20190;-79
2022/06/20 08:37:42;;;;;;;3.70;2.42;;;;;;;28.72;33.40;94526.44;5093784;28;20637;-79
2022/06/20 08:40:34;;;;;;;3.85;2.03;;;;;;;28.24;31.34;94519.97;5093621;28;20226;-79
2022/06/20 08:43:20;;;;;;;4.03;2.80;;;;;;;27.80;32.79;94524.41;5093338;28;20243;-80
2022/06/20 08:46:12;;;;;;;5.90;1.90;;;;;;;28.16;30.81;94517.78;5093466;28;20214;-79
2022/06/20 08:49:26;;;;;;;3.13;2.28;;;;;;;28.86;32.11;94523.22;5093512;28;20230;-79
2022/06/20 08:52:34;;;;;;;2.60;2.20;;;;;;;27.84;32.92;94524.31;5092895;28;20194;-80
2022/06/20 08:55:34;;;;;;;3.30;2.20;;;;;;;27.81;34.02;94522.41;5070602;28;20222;-80
2022/06/20 08:58:14;;;;;;;2.20;2.00;;;;;;;27.10;34.03;94510.41;5072767;28;20234;-78
2022/06/20 09:00:46;;;;;;;4.10;1.98;;;;;;;28.02;33.32;94512.69;5073539;28;20591;-79
2022/06/20 09:03:35;;;;;;;4.85;2.40;;;;;;;27.32;33.92;94527.34;5073236;28;20992;-76
2022/06/20 09:06:15;;;;;;;4.30;2.00;;;;;;;26.76;32.99;94525.53;5072583;28;20547;-77
2022/06/20 09:09:05;;;;;;;6.07;2.40;;;;;;;27.51;32.18;94513.25;5071795;28;20284;-80
2022/06/20 09:11:54;;;;;;;6.00;2.38;;;;;;;27.38;32.49;94514.44;5072104;28;20218;-79
2022/06/20 09:14:37;;;;;;;2.67;1.88;;;;;;;27.64;30.36;94515.34;5072613;28;20218;-75
2022/06/20 09:17:12;;;;;;;3.35;1.80;;;;;;;27.30;32.11;94502.72;5073001;28;20223;-79
2022/06/20 09:19:53;;;;;;;6.10;1.63;;;;;;;26.95;31.46;94503.63;5072976;28;20627;-79
2022/06/20 09:22:37;;;;;;;2.17;1.58;;;;;;;26.12;31.55;94510.28;5071584;28;20580;-78
2022/06/20 09:25:16;;;;;;;1.70;1.42;;;;;;;25.96;32.21;94507.50;5072330;28;20256;-79
2022/06/20 09:27:55;;;;;;;1.88;1.50;;;;;;;26.03;30.88;94499.00;5072476;28;20225;-79
2022/06/20 09:30:34;;;;;;;2.05;1.55;;;;;;;26.43;31.78;94490.59;5072837;28;20191;-79
2022/06/20 09:33:27;;;;;;;2.50;1.60;;;;;;;27.11;32.29;94493.28;5072578;28;20187;-79
2022/06/20 09:36:43;;;;;;;2.03;1.73;;;;;;;26.50;32.06;94507.88;5072307;28;20195;-79
2022/06/20 09:39:24;;;;;;;3.30;1.75;;;;;;;26.36;31.96;94496.31;5072626;28;20219;-79
2022/06/20 09:42:01;;;;;;;3.22;1.70;;;;;;;27.21;30.97;94489.44;5072230;28;20692;-79
2022/06/20 09:44:36;;;;;;;2.65;1.63;;;;;;;28.07;30.47;94482.25;5079897;28;20218;-80
2022/06/20 09:47:20;;;;;;;1.83;1.63;;;;;;;28.47;30.78;94471.47;5092615;28;20232;-79
2022/06/20 09:49:53;;;;;;;2.05;1.50;;;;;;;27.93;31.37;94477.09;5092577;28;20225;-77
2022/06/20 09:52:28;;;;;;;3.70;1.58;;;;;;;27.95;30.81;94478.22;5092109;28;20705;-80
2022/06/20 09:55:02;;;;;;;1.98;1.38;;;;;;;27.81;30.50;94475.88;5091962;28;20662;-78
2022/06/20 09:57:40;;;;;;;2.67;1.60;;;;;;;26.87;30.73;94492.69;5091873;28;20229;-80
2022/06/20 10:00:12;;;;;;;3.38;1.55;;;;;;;27.34;30.66;94478.34;5092595;28;20195;-77
2022/06/20 10:02:52;;;;;;;2.08;1.88;;;;;;;27.12;32.04;94485.72;5092710;28;20668;-78
2022/06/20 10:05:28;;;;;;;2.08;1.85;;;;;;;27.08;31.48;94496.16;5091953;28;20312;-77
2022/06/20 10:08:02;;;;;;;1.98;1.70;;;;;;;27.07;30.26;94478.69;5091960;28;20389;-75
2022/06/20 10:10:35;;;;;;;3.28;1.60;;;;;;;26.75;30.42;94478.72;5092104;28;20218;-80
2022/06/20 10:13:11;;;;;;;2.33;1.73;;;;;;;26.46;31.56;94478.63;5091824;28;20276;-76
2022/06/20 10:15:45;;;;;;;2.55;1.80;;;;;;;26.28;31.66;94484.59;5091832;28;20705;-79
2022/06/20 10:18:34;;;;;;;2.55;1.52;;;;;;;26.91;30.60;94473.13;5092093;28;20243;-79
2022/06/20 10:21:07;;;;;;;3.30;1.55;;;;;;;27.22;30.48;94473.53;5090909;28;20239;-77
2022/06/20 10:23:55;;;;;;;1.83;1.50;;;;;;;27.16;29.13;94476.06;5091230;28;20238;-79
2022/06/20 10:26:50;;;;;;;1.65;1.50;;;;;;;26.92;29.97;94472.66;5091325;28;20198;-75
2022/06/20 10:29:23;;;;;;;1.67;1.50;;;;;;;26.69;27.42;94481.22;5091488;28;20210;-79
2022/06/20 10:32:00;;;;;;;1.60;1.50;;;;;;;26.95;27.81;94470.28;5091841;28;20229;-78
2022/06/20 10:34:39;;;;;;;2.13;1.65;;;;;;;26.43;29.36;94474.69;5091818;28;20190;-79
2022/06/20 10:37:23;;;;;;;2.30;1.38;;;;;;;26.58;28.99;94469.59;5091312;28;20222;-78
2022/06/20 10:39:58;;;;;;;1.90;1.58;;;;;;;27.01;28.84;94460.19;5091640;28;20187;-77
2022/06/20 10:42:32;;;;;;;1.73;1.38;;;;;;;26.85;29.24;94450.63;5091799;28;20222;-78
2022/06/20 10:45:32;;;;;;;2.05;1.70;;;;;;;27.32;29.17;94449.44;5091200;28;20222;-80
2022/06/20 10:48:20;;;;;;;2.03;1.48;;;;;;;27.83;28.64;94439.22;5091657;28;20235;-76
2022/06/20 10:50:53;;;;;;;2.17;1.65;;;;;;;27.31;30.32;94443.09;5091254;28;20222;-79
2022/06/20 10:53:28;;;;;;;1.80;1.70;;;;;;;26.92;28.89;94447.66;5091243;28;20182;-78
2022/06/20 10:56:07;;;;;;;3.17;1.63;;;;;;;27.05;30.68;94444.19;5090594;28;20722;-78
2022/06/20 10:58:44;;;;;;;1.50;1.35;;;;;;;27.32;30.55;94433.53;5091299;28;20267;-78
2022/06/20 11:01:18;;;;;;;2.20;1.88;;;;;;;27.42;28.55;94429.66;5090947;28;20255;-76
2022/06/20 11:04:00;;;;;;;3.53;1.60;;;;;;;27.95;29.53;94424.53;5091337;28;20232;-79
2022/06/20 11:06:41;;;;;;;2.97;1.40;;;;;;;28.11;30.54;94413.28;5092249;28;20188;-79
2022/06/20 11:09:19;;;;;;;1.88;1.60;;;;;;;27.78;29.48;94417.50;5091831;28;20275;-78
2022/06/20 11:11:58;;;;;;;2.78;1.80;;;;;;;27.46;28.41;94419.19;5090908;28;20275;-79
2022/06/20 11:14:32;;;;;;;1.65;1.55;;;;;;;27.36;28.58;94413.91;5091347;28;20219;-78
2022/06/20 11:17:05;;;;;;;3.33;1.73;;;;;;;27.29;29.36;94409.34;5091544;28;20279;-76
2022/06/20 11:19:41;;;;;;;2.20;1.85;;;;;;;27.07;28.86;94408.38;5090881;28;20281;-78
2022/06/20 11:22:21;;;;;;;2.97;1.60;;;;;;;27.43;30.22;94403.38;5090902;28;20226;-77
2022/06/20 11:24:56;;;;;;;2.60;1.58;;;;;;;27.67;29.94;94398.34;5090883;28;20234;-81
2022/06/20 11:27:37;;;;;;;2.22;2.03;;;;;;;27.23;28.56;94411.09;5090660;28;20641;-78
2022/06/20 11:30:11;;;;;;;2.33;1.45;;;;;;;26.90;28.78;94413.97;5091323;28;20264;-79
2022/06/20 11:32:57;;;;;;;2.53;1.55;;;;;;;26.92;28.34;94408.72;5093372;28;20182;-78
2022/06/20 11:35:36;;;;;;;1.58;1.48;;;;;;;26.30;28.04;94414.72;5095236;28;20229;-79
2022/06/20 11:38:24;;;;;;;2.80;1.48;;;;;;;26.85;27.43;94399.81;5094891;28;20218;-78
2022/06/20 11:40:58;;;;;;;2.38;1.30;;;;;;;26.94;27.75;94393.63;5095080;28;20276;-77
2022/06/20 11:43:53;;;;;;;1.80;1.30;;;;;;;27.18;26.49;94384.63;5095091;28;20221;-79
2022/06/20 11:46:48;;;;;;;2.30;1.60;;;;;;;27.09;27.27;94389.25;5074956;28;20229;-74
2022/06/20 11:49:26;;;;;;;2.22;1.40;;;;;;;27.75;28.00;94385.75;5074416;28;20659;-79
2022/06/20 11:52:00;;;;;;;2.53;1.33;;;;;;;28.34;27.26;94380.75;5074578;28;20685;-78
2022/06/20 11:54:37;;;;;;;3.30;1.38;;;;;;;28.29;27.97;94382.88;5074297;28;20276;-79
2022/06/20 11:57:15;;;;;;;1.60;1.50;;;;;;;27.91;28.03;94374.50;5087528;28;20186;-76
2022/06/20 11:59:50;;;;;;;1.52;1.33;;;;;;;28.20;28.62;94360.47;5094440;28;20229;-79
2022/06/20 12:02:34;;;;;;;1.90;1.70;;;;;;;28.47;28.06;94362.78;5094395;28;20260;-78
2022/06/20 12:05:28;;;;;;;1.88;1.67;;;;;;;28.60;28.00;94362.75;5094719;28;20193;-79
2022/06/20 12:08:00;;;;;;;2.50;1.48;;;;;;;29.10;27.50;94355.47;5094275;28;20431;-77
2022/06/20 12:10:38;;;;;;;1.60;1.50;;;;;;;29.31;28.07;94354.66;5094361;28;20841;-79
2022/06/20 12:13:19;;;;;;;1.50;1.40;;;;;;;28.56;26.51;94353.75;5094289;28;20301;-78
2022/06/20 12:15:55;;;;;;;2.55;1.63;;;;;;;28.13;28.68;94357.91;5094335;28;20226;-78
2022/06/20 12:18:39;;;;;;;2.70;1.40;;;;;;;28.61;27.57;94347.56;5094530;28;20587;-78